Time;durP1;ratioP1;P1;durP2;ratioP2;P2;SDS_P1;SDS_P2;PMS_P1;PMS_P2;Temp;Humidity;BMP_temperature;BMP_pressure;BME280_temperature;BME280_humidity;BME280_pressure;Samples;Min_cycle;Max_cycle;Signal;HPM_P1;HPM_P2
2022/12/22 03:28:08;;;;;;;1.23;1.10;;;8.90;99.90;;;;;;6280404;22;20152;-87
2022/12/22 03:30:35;;;;;;;1.00;0.90;;;9.00;99.90;;;;;;6254074;22;20186;-87
2022/12/22 03:33:01;;;;;;;1.70;1.10;;;9.00;99.90;;;;;;6255163;22;20159;-87
2022/12/22 03:35:26;;;;;;;1.33;1.10;;;8.90;99.90;;;;;;6255096;22;20163;-87
2022/12/22 03:37:52;;;;;;;1.37;0.90;;;8.90;99.90;;;;;;6255109;22;20272;-87
2022/12/22 03:40:18;;;;;;;1.10;0.90;;;8.80;99.90;;;;;;6254559;22;20217;-87
2022/12/22 03:48:13;;;;;;;1.13;0.73;;;8.80;99.90;;;;;;6278538;22;20148;-87
2022/12/22 03:50:38;;;;;;;1.17;0.90;;;8.80;99.90;;;;;;6254244;22;20254;-88
2022/12/22 03:53:04;;;;;;;3.17;1.70;;;8.90;99.90;;;;;;6254490;22;20153;-87
2022/12/22 03:55:30;;;;;;;2.33;1.57;;;9.00;99.90;;;;;;6280207;22;20156;-87
2022/12/22 03:57:56;;;;;;;2.27;1.00;;;9.10;99.90;;;;;;6280391;22;20201;-87
2022/12/22 04:00:22;;;;;;;1.33;0.90;;;9.10;99.90;;;;;;6279963;22;20167;-87
2022/12/22 04:02:48;;;;;;;2.07;0.80;;;9.10;99.90;;;;;;6255041;22;20180;-87
2022/12/22 04:05:14;;;;;;;1.33;0.90;;;9.20;99.90;;;;;;6255165;22;20249;-87
2022/12/22 04:07:40;;;;;;;1.17;0.80;;;9.20;99.90;;;;;;6255122;22;20239;-87
2022/12/22 04:12:54;;;;;;;0.90;0.80;;;9.20;99.90;;;;;;6279728;22;20176;-87
2022/12/22 04:15:25;;;;;;;4.23;0.93;;;9.30;99.90;;;;;;6254379;22;20254;-87
2022/12/22 04:17:51;;;;;;;1.00;0.90;;;9.30;99.90;;;;;;6254145;22;20214;-87
2022/12/22 04:20:19;;;;;;;1.33;0.90;;;9.30;99.90;;;;;;6254179;22;20194;-87
2022/12/22 04:22:44;;;;;;;1.53;0.90;;;9.30;99.90;;;;;;6254065;22;20198;-87
2022/12/22 04:25:10;;;;;;;1.77;0.80;;;9.30;99.90;;;;;;6254286;22;20156;-87
2022/12/22 04:27:36;;;;;;;1.50;1.00;;;9.40;99.90;;;;;;6254640;22;20156;-87
2022/12/22 04:30:04;;;;;;;2.07;0.70;;;9.40;99.90;;;;;;6254069;22;20160;-88
2022/12/22 04:32:31;;;;;;;5.00;0.97;;;9.40;99.90;;;;;;6254652;22;20203;-88
2022/12/22 04:34:57;;;;;;;1.10;0.70;;;9.40;99.90;;;;;;6305955;22;20164;-87
2022/12/22 04:37:23;;;;;;;3.27;0.93;;;9.40;99.90;;;;;;6255049;22;20160;-88
2022/12/22 04:39:49;;;;;;;2.00;0.90;;;9.50;99.90;;;;;;6254254;22;20183;-87
2022/12/22 04:42:15;;;;;;;3.07;1.00;;;9.50;99.90;;;;;;6254511;22;20180;-88
2022/12/22 04:44:40;;;;;;;2.90;1.07;;;9.50;99.90;;;;;;6254520;22;20151;-87
2022/12/22 04:47:06;;;;;;;2.73;1.30;;;9.60;99.90;;;;;;6254803;22;20156;-87
2022/12/22 04:49:32;;;;;;;4.50;1.40;;;9.60;99.90;;;;;;6280224;22;20206;-87
2022/12/22 04:51:58;;;;;;;2.30;1.10;;;9.70;99.90;;;;;;6307214;22;20160;-87
2022/12/22 04:54:24;;;;;;;4.67;1.20;;;9.70;99.90;;;;;;6254975;22;20243;-87
2022/12/22 04:56:50;;;;;;;2.80;1.20;;;9.70;99.90;;;;;;6280593;22;20184;-88
2022/12/22 04:59:16;;;;;;;2.90;1.43;;;9.70;99.90;;;;;;6254496;22;20163;-87
2022/12/22 05:01:52;;;;;;;4.07;1.27;;;9.70;99.90;;;;;;6253541;22;20282;-88
2022/12/22 05:04:18;;;;;;;4.93;1.67;;;9.80;99.90;;;;;;6254931;22;20202;-88
2022/12/22 05:06:44;;;;;;;3.97;1.30;;;9.70;99.90;;;;;;6305512;22;20152;-88
2022/12/22 05:09:10;;;;;;;5.67;2.20;;;9.70;99.90;;;;;;6280031;22;20152;-88
2022/12/22 05:11:37;;;;;;;3.13;1.40;;;9.70;99.90;;;;;;6279755;22;20187;-87
2022/12/22 05:14:03;;;;;;;3.20;1.37;;;9.70;99.90;;;;;;6254923;22;20251;-87
2022/12/22 05:16:28;;;;;;;5.13;1.30;;;9.70;99.90;;;;;;6254367;22;20194;-87
2022/12/22 05:18:54;;;;;;;2.97;1.23;;;9.60;99.90;;;;;;6254732;22;20187;-88
2022/12/22 05:21:22;;;;;;;4.93;2.23;;;9.60;99.90;;;;;;6254488;22;20191;-88
2022/12/22 05:23:49;;;;;;;2.90;1.87;;;9.60;99.90;;;;;;6254614;22;20184;-87
2022/12/22 05:26:16;;;;;;;5.97;1.50;;;9.60;99.90;;;;;;6254198;22;20160;-88
2022/12/22 05:28:45;;;;;;;6.20;2.30;;;9.60;99.90;;;;;;6255217;22;20161;-87
2022/12/22 05:31:19;;;;;;;4.60;2.00;;;9.60;99.90;;;;;;6256344;22;20229;-87
2022/12/22 05:33:45;;;;;;;2.53;1.80;;;9.60;99.90;;;;;;6282228;22;20156;-87
2022/12/22 05:36:11;;;;;;;2.77;1.70;;;9.60;99.90;;;;;;6256663;22;20185;-87
2022/12/22 05:38:37;;;;;;;2.37;1.50;;;9.60;99.90;;;;;;6282117;22;20186;-87
2022/12/22 05:41:03;;;;;;;4.23;1.90;;;9.60;99.90;;;;;;6255784;22;20192;-88
2022/12/22 05:43:29;;;;;;;5.23;1.73;;;9.50;99.90;;;;;;6307249;22;20163;-87
2022/12/22 05:45:55;;;;;;;2.13;1.30;;;9.50;99.90;;;;;;6256226;22;20152;-87
2022/12/22 05:48:22;;;;;;;6.80;1.43;;;9.50;99.90;;;;;;6255531;22;20160;-87
2022/12/22 05:50:48;;;;;;;4.13;1.30;;;9.50;99.90;;;;;;6256190;22;20294;-87
2022/12/22 05:53:14;;;;;;;4.83;1.50;;;9.50;99.90;;;;;;6256486;22;20623;-88
2022/12/22 05:55:39;;;;;;;7.57;1.67;;;9.40;99.90;;;;;;6256147;22;20247;-87
2022/12/22 05:58:05;;;;;;;4.20;1.70;;;9.40;99.90;;;;;;6255771;22;20164;-87
2022/12/22 06:00:40;;;;;;;6.23;2.20;;;9.40;99.90;;;;;;6280168;22;20211;-88
2022/12/22 06:03:10;;;;;;;8.30;2.07;;;9.40;99.90;;;;;;6254761;22;20234;-87
2022/12/22 06:05:36;;;;;;;6.00;1.93;;;9.40;99.90;;;;;;6256847;22;20155;-88
2022/12/22 06:08:01;;;;;;;4.23;1.67;;;9.30;99.90;;;;;;6256544;22;20587;-87
2022/12/22 06:10:27;;;;;;;6.30;1.93;;;9.30;99.90;;;;;;6256055;22;20156;-88
2022/12/22 06:12:53;;;;;;;4.10;1.93;;;9.30;99.90;;;;;;6256533;22;20190;-87
2022/12/22 06:15:19;;;;;;;4.37;2.20;;;9.30;99.90;;;;;;6256015;22;20156;-88
2022/12/22 06:17:45;;;;;;;6.50;2.07;;;9.30;99.90;;;;;;6256070;22;20186;-88
2022/12/22 06:20:12;;;;;;;7.70;2.40;;;9.30;99.90;;;;;;6254408;22;20233;-87
2022/12/22 06:22:38;;;;;;;4.23;2.00;;;9.30;99.90;;;;;;6279725;22;20243;-88
2022/12/22 06:25:07;;;;;;;6.13;2.40;;;9.20;99.90;;;;;;6252719;22;20202;-88
2022/12/22 06:27:34;;;;;;;6.37;2.30;;;9.20;99.90;;;;;;6254088;22;20190;-89
2022/12/22 06:29:59;;;;;;;6.93;2.13;;;9.10;99.90;;;;;;6254016;22;20217;-89
2022/12/22 06:32:25;;;;;;;8.20;2.67;;;9.10;99.90;;;;;;6257938;22;20175;-89
2022/12/22 06:34:51;;;;;;;6.37;2.67;;;9.00;99.90;;;;;;6256079;22;20156;-88
2022/12/22 06:37:17;;;;;;;6.83;2.60;;;9.00;99.90;;;;;;6256016;22;20157;-89
2022/12/22 06:39:43;;;;;;;6.93;2.53;;;9.00;99.90;;;;;;6255109;22;20187;-89
2022/12/22 06:44:54;;;;;;;8.30;2.13;;;9.00;99.90;;;;;;6281906;22;20159;-89
2022/12/22 06:47:20;;;;;;;9.77;2.53;;;9.10;99.90;;;;;;6256418;22;20160;-88
2022/12/22 06:49:47;;;;;;;8.27;2.33;;;9.20;99.90;;;;;;6281007;22;20167;-89
2022/12/22 06:52:13;;;;;;;7.10;2.20;;;9.20;99.90;;;;;;6255914;22;20211;-89
2022/12/22 06:54:39;;;;;;;8.17;2.70;;;9.30;99.90;;;;;;6256260;22;20567;-89
2022/12/22 06:57:04;;;;;;;8.60;2.17;;;9.30;99.90;;;;;;6256224;22;20160;-88
2022/12/22 06:59:30;;;;;;;6.40;1.83;;;9.30;99.90;;;;;;6255656;22;20163;-88
2022/12/22 07:01:57;;;;;;;6.53;2.20;;;9.30;99.90;;;;;;6255129;22;20182;-89
2022/12/22 07:04:42;;;;;;;10.33;3.17;;;9.30;99.90;;;;;;6256020;22;20156;-89
2022/12/22 07:07:08;;;;;;;11.93;3.00;;;9.40;99.90;;;;;;6255689;22;20147;-89
2022/12/22 07:09:34;;;;;;;9.17;2.07;;;9.40;99.90;;;;;;6255656;22;20152;-89
2022/12/22 07:11:59;;;;;;;8.57;2.33;;;9.50;99.90;;;;;;6255196;22;20251;-89
2022/12/22 07:14:25;;;;;;;5.33;2.20;;;9.60;99.90;;;;;;6255530;22;20173;-89
2022/12/22 07:17:04;;;;;;;9.87;2.20;;;9.60;99.90;;;;;;6255060;22;20144;-88
2022/12/22 07:19:30;;;;;;;5.87;2.17;;;9.60;99.90;;;;;;6280637;22;20148;-89
2022/12/22 07:22:03;;;;;;;7.43;1.77;;;9.70;99.90;;;;;;6255519;22;20167;-89
2022/12/22 07:24:29;;;;;;;6.60;2.53;;;9.80;99.90;;;;;;6256091;22;20152;-89
2022/12/22 07:26:58;;;;;;;9.10;2.10;;;9.80;99.90;;;;;;6280862;22;20235;-89
2022/12/22 07:29:41;;;;;;;4.73;1.83;;;9.80;99.90;;;;;;6279744;22;20163;-88
2022/12/22 07:32:07;;;;;;;7.37;1.77;;;9.80;99.90;;;;;;6280027;22;20177;-89
2022/12/22 07:34:34;;;;;;;4.73;1.57;;;9.80;99.90;;;;;;6281077;22;20160;-89
2022/12/22 07:37:00;;;;;;;5.80;1.60;;;9.70;99.90;;;;;;6255297;22;20155;-89
2022/12/22 07:39:27;;;;;;;8.73;1.90;;;9.70;99.90;;;;;;6254766;22;20152;-89
2022/12/22 07:44:48;;;;;;;6.50;2.93;;;9.60;99.90;;;;;;6224320;22;20243;-88
2022/12/22 07:47:14;;;;;;;11.13;2.37;;;9.60;99.90;;;;;;6255803;22;20185;-88
2022/12/22 07:52:25;;;;;;;7.27;1.73;;;9.60;99.90;;;;;;6280784;22;20172;-88
2022/12/22 07:54:54;;;;;;;6.13;2.00;;;9.60;99.90;;;;;;6280161;22;20160;-88
2022/12/22 07:57:20;;;;;;;7.80;2.10;;;9.60;99.90;;;;;;6254923;22;20156;-88
2022/12/22 07:59:47;;;;;;;9.87;2.70;;;9.60;99.90;;;;;;6254324;22;20184;-88
2022/12/22 08:02:15;;;;;;;8.40;2.03;;;9.60;99.90;;;;;;6280370;22;20176;-88
2022/12/22 08:04:41;;;;;;;5.60;2.20;;;9.60;99.90;;;;;;6254214;22;20171;-89
2022/12/22 08:07:07;;;;;;;5.97;1.70;;;9.60;99.90;;;;;;6253489;22;20156;-89
2022/12/22 08:09:32;;;;;;;7.80;1.80;;;9.70;99.90;;;;;;6254436;22;20203;-88
2022/12/22 08:11:58;;;;;;;8.20;2.00;;;9.70;99.90;;;;;;6254648;22;20260;-89
2022/12/22 08:14:24;;;;;;;4.93;1.70;;;9.70;99.90;;;;;;6254706;22;20179;-86
2022/12/22 08:16:50;;;;;;;8.63;1.60;;;9.70;99.90;;;;;;6255202;22;20235;-88
2022/12/22 08:19:19;;;;;;;8.27;1.80;;;9.70;99.90;;;;;;6254415;22;20152;-86
2022/12/22 08:21:52;;;;;;;7.50;1.90;;;9.60;99.90;;;;;;6278628;22;20194;-86
2022/12/22 08:24:23;;;;;;;7.43;1.70;;;9.60;99.90;;;;;;6253993;22;20149;-86
2022/12/22 08:26:55;;;;;;;9.13;1.67;;;9.60;99.90;;;;;;6254195;22;20152;-86
2022/12/22 08:29:42;;;;;;;6.97;1.93;;;9.60;99.90;;;;;;6249896;22;20579;-86
2022/12/22 08:32:10;;;;;;;9.97;1.80;;;9.60;99.90;;;;;;6254060;22;20230;-86
2022/12/22 08:34:36;;;;;;;6.07;1.90;;;9.50;99.90;;;;;;6254166;22;20164;-86
2022/12/22 08:37:06;;;;;;;5.73;1.60;;;9.50;99.90;;;;;;6279887;22;20156;-86
2022/12/22 08:39:35;;;;;;;5.87;1.70;;;9.50;99.90;;;;;;6253269;22;20156;-85
2022/12/22 08:42:04;;;;;;;4.23;1.67;;;9.60;99.90;;;;;;6252581;22;20203;-86
2022/12/22 08:44:30;;;;;;;7.50;1.37;;;9.70;99.90;;;;;;6254290;22;20163;-87
2022/12/22 08:46:59;;;;;;;6.83;1.47;;;9.70;99.90;;;;;;6254513;22;20156;-86
2022/12/22 08:49:27;;;;;;;6.87;1.50;;;9.70;99.90;;;;;;6253981;22;20156;-84
2022/12/22 08:51:54;;;;;;;5.03;1.53;;;9.80;99.90;;;;;;6279481;22;20214;-89
2022/12/22 08:54:23;;;;;;;3.63;1.40;;;9.80;99.90;;;;;;6304534;22;20160;-87
2022/12/22 08:56:51;;;;;;;6.17;1.40;;;9.80;99.90;;;;;;6252427;22;20160;-87
2022/12/22 08:59:18;;;;;;;4.60;1.27;;;9.90;99.90;;;;;;6254333;22;20162;-87
2022/12/22 09:01:46;;;;;;;6.77;1.27;;;9.90;99.90;;;;;;6254019;22;20200;-87
2022/12/22 09:04:13;;;;;;;4.73;1.30;;;9.90;99.90;;;;;;6253452;22;20158;-86
2022/12/22 09:06:40;;;;;;;3.60;1.40;;;9.90;99.90;;;;;;6251540;22;20578;-85
2022/12/22 09:09:08;;;;;;;5.00;1.63;;;10.00;99.90;;;;;;6253096;22;20152;-86
2022/12/22 09:11:34;;;;;;;4.30;1.20;;;10.00;99.90;;;;;;6253799;22;20280;-86
2022/12/22 09:14:02;;;;;;;3.57;1.20;;;10.00;99.90;;;;;;6253711;22;20183;-88
2022/12/22 09:16:30;;;;;;;5.40;1.50;;;10.00;99.90;;;;;;6280180;22;20156;-88
2022/12/22 09:18:56;;;;;;;5.30;1.50;;;10.00;99.90;;;;;;6253778;22;20160;-87
2022/12/22 09:21:23;;;;;;;7.13;1.77;;;10.00;99.90;;;;;;6254253;22;20266;-87
2022/12/22 09:24:06;;;;;;;4.57;1.70;;;10.00;99.90;;;;;;6254255;22;20175;-87
2022/12/22 09:26:32;;;;;;;6.67;1.80;;;9.90;99.90;;;;;;6253575;22;20160;-87
2022/12/22 09:28:58;;;;;;;5.77;1.60;;;9.90;99.90;;;;;;6254420;22;20152;-87
2022/12/22 09:31:28;;;;;;;4.10;1.60;;;9.90;99.90;;;;;;6254314;22;20258;-87
2022/12/22 09:33:55;;;;;;;9.33;1.97;;;9.90;99.90;;;;;;6254645;22;20152;-88
2022/12/22 09:36:30;;;;;;;6.20;1.63;;;9.90;99.90;;;;;;6254921;22;20490;-87
2022/12/22 09:38:56;;;;;;;6.30;1.57;;;9.90;99.90;;;;;;6279711;22;20156;-88
2022/12/22 09:41:30;;;;;;;7.33;1.50;;;9.90;99.90;;;;;;6252473;22;20191;-88
2022/12/22 09:44:01;;;;;;;7.37;1.73;;;9.90;99.90;;;;;;6254563;22;20154;-88
2022/12/22 09:46:35;;;;;;;3.73;1.40;;;9.80;99.90;;;;;;6254130;22;20155;-88
2022/12/22 09:49:01;;;;;;;5.97;1.67;;;9.80;99.90;;;;;;6253718;22;20152;-87
2022/12/22 09:51:28;;;;;;;5.40;1.60;;;9.80;99.90;;;;;;6280085;22;20180;-88
2022/12/22 09:53:58;;;;;;;4.50;1.70;;;9.80;99.90;;;;;;6254813;22;20167;-88
2022/12/22 09:56:26;;;;;;;9.10;2.10;;;9.80;99.90;;;;;;6254949;22;20234;-88
2022/12/22 09:58:52;;;;;;;6.07;1.83;;;9.90;99.90;;;;;;6254323;22;20160;-87
2022/12/22 10:01:37;;;;;;;6.67;1.53;;;9.90;99.90;;;;;;6279871;22;20187;-88
2022/12/22 10:04:18;;;;;;;6.77;2.00;;;9.90;99.90;;;;;;6254645;22;20213;-88
2022/12/22 10:07:06;;;;;;;6.97;1.40;;;9.90;99.90;;;;;;6254935;22;20172;-88
2022/12/22 10:09:32;;;;;;;6.90;1.43;;;10.00;99.90;;;;;;6280221;22;20162;-87
2022/12/22 10:12:03;;;;;;;9.13;1.80;;;10.00;99.90;;;;;;6250411;22;20187;-88
2022/12/22 10:14:40;;;;;;;8.30;1.90;;;10.00;99.90;;;;;;6253100;22;20182;-88
2022/12/22 10:17:24;;;;;;;6.43;1.57;;;10.00;99.90;;;;;;6255593;22;20159;-88
2022/12/22 10:19:52;;;;;;;6.87;1.97;;;10.10;99.90;;;;;;6256413;22;20266;-88
2022/12/22 10:22:18;;;;;;;6.73;1.57;;;10.00;99.90;;;;;;6256117;22;20274;-88
2022/12/22 10:24:44;;;;;;;4.90;1.67;;;10.10;99.90;;;;;;6281674;22;20206;-88
2022/12/22 10:27:10;;;;;;;8.23;1.97;;;10.10;99.90;;;;;;6281703;22;20158;-88
2022/12/22 10:29:36;;;;;;;5.47;1.50;;;10.10;99.90;;;;;;6256370;22;20640;-88
2022/12/22 10:32:17;;;;;;;4.83;1.50;;;10.10;99.90;;;;;;6255167;22;20177;-87
2022/12/22 10:35:03;;;;;;;6.97;1.73;;;10.10;99.90;;;;;;6255682;22;20236;-87
2022/12/22 10:37:35;;;;;;;5.77;1.73;;;10.10;99.90;;;;;;6256216;22;20225;-87
2022/12/22 10:40:20;;;;;;;7.23;2.00;;;10.10;99.90;;;;;;6281516;22;20183;-87
2022/12/22 10:42:52;;;;;;;7.60;2.00;;;10.20;99.90;;;;;;6254981;22;20176;-87
2022/12/22 10:45:25;;;;;;;9.17;2.97;;;10.10;99.90;;;;;;6281088;22;20239;-87
2022/12/22 10:47:59;;;;;;;6.53;1.73;;;10.20;99.90;;;;;;6255380;22;20149;-87
2022/12/22 10:50:25;;;;;;;7.03;1.83;;;10.20;99.90;;;;;;6255202;22;20249;-87
2022/12/22 10:52:53;;;;;;;8.33;1.90;;;10.20;99.90;;;;;;6281593;22;20255;-87
2022/12/22 10:55:25;;;;;;;8.57;1.97;;;10.30;99.90;;;;;;6256173;22;20167;-87
2022/12/22 10:58:04;;;;;;;11.47;2.00;;;10.30;99.90;;;;;;6256395;22;20257;-87
2022/12/22 11:00:31;;;;;;;6.27;1.83;;;10.30;99.90;;;;;;6281072;22;20179;-87
2022/12/22 11:02:59;;;;;;;6.37;1.80;;;10.40;99.90;;;;;;6256116;22;20214;-87
2022/12/22 11:05:25;;;;;;;9.00;1.87;;;10.40;99.90;;;;;;6255761;22;20156;-87
2022/12/22 11:07:53;;;;;;;7.63;1.80;;;10.40;99.90;;;;;;6280785;22;20159;-87
2022/12/22 11:10:31;;;;;;;5.87;1.77;;;10.40;99.90;;;;;;6281046;22;20187;-87
2022/12/22 11:13:21;;;;;;;4.80;1.37;;;10.40;99.90;;;;;;6281077;22;20156;-87
2022/12/22 11:16:05;;;;;;;9.10;2.07;;;10.40;99.90;;;;;;6255836;22;20152;-86
2022/12/22 11:18:46;;;;;;;6.13;1.83;;;10.40;99.90;;;;;;6255588;22;20153;-86
2022/12/22 11:21:20;;;;;;;7.20;1.70;;;10.40;99.90;;;;;;6255670;22;20191;-86
2022/12/22 11:24:00;;;;;;;7.43;1.50;;;10.40;99.90;;;;;;6280845;22;20567;-86
2022/12/22 11:27:22;;;;;;;5.17;1.87;;;10.40;99.90;;;;;;6255153;22;20163;-86
2022/12/22 11:30:29;;;;;;;5.60;1.80;;;10.50;99.90;;;;;;6281142;22;20137;-86
2022/12/22 11:33:14;;;;;;;7.33;2.00;;;10.50;99.90;;;;;;6221094;22;20187;-86
2022/12/22 11:35:52;;;;;;;8.30;1.90;;;10.50;99.90;;;;;;6280399;22;20257;-86
2022/12/22 11:38:54;;;;;;;10.27;2.03;;;10.50;99.90;;;;;;6255355;22;20164;-87
2022/12/22 11:41:35;;;;;;;4.47;1.40;;;10.50;99.90;;;;;;6280675;22;20272;-86
2022/12/22 11:44:23;;;;;;;9.07;1.73;;;10.60;99.90;;;;;;6255876;22;20157;-86
2022/12/22 11:47:25;;;;;;;5.37;1.73;;;10.60;99.90;;;;;;6280738;22;20162;-86
2022/12/22 11:50:00;;;;;;;5.67;1.73;;;10.60;99.90;;;;;;6254836;22;20147;-86
2022/12/22 11:52:25;;;;;;;7.43;1.97;;;10.70;99.90;;;;;;6255013;22;20179;-86
2022/12/22 11:55:03;;;;;;;6.50;1.83;;;10.60;99.90;;;;;;6255307;22;20161;-86
2022/12/22 11:57:43;;;;;;;8.90;2.37;;;10.70;99.90;;;;;;6255148;22;20156;-86
2022/12/22 12:00:15;;;;;;;7.53;1.87;;;10.70;99.90;;;;;;6254923;22;20605;-85
2022/12/22 12:03:29;;;;;;;7.20;1.57;;;10.80;99.90;;;;;;6254253;22;20176;-86
2022/12/22 12:06:26;;;;;;;6.23;1.70;;;10.80;99.90;;;;;;6254513;22;20180;-86
2022/12/22 12:09:08;;;;;;;10.53;4.43;;;10.90;99.90;;;;;;6255123;22;20157;-87
2022/12/22 12:11:45;;;;;;;5.90;1.57;;;10.90;99.90;;;;;;6255070;22;20189;-86
2022/12/22 12:14:29;;;;;;;8.20;1.60;;;10.90;99.90;;;;;;6255140;22;20148;-86
2022/12/22 12:17:01;;;;;;;6.97;1.70;;;10.90;99.90;;;;;;6279879;22;20156;-86
2022/12/22 12:19:41;;;;;;;7.47;1.57;;;10.80;99.90;;;;;;6254911;22;20155;-86
2022/12/22 12:22:19;;;;;;;5.27;1.50;;;10.80;99.90;;;;;;6280386;22;20202;-86
2022/12/22 12:25:15;;;;;;;8.07;2.10;;;10.80;99.90;;;;;;6307708;22;20136;-86
2022/12/22 12:27:50;;;;;;;8.93;2.97;;;10.80;99.90;;;;;;6255067;22;20235;-87
2022/12/22 12:30:19;;;;;;;7.53;2.30;;;10.80;99.90;;;;;;6254556;22;20159;-86
2022/12/22 12:33:05;;;;;;;6.37;1.77;;;10.90;99.90;;;;;;6255141;22;20181;-86
2022/12/22 12:35:40;;;;;;;8.23;2.13;;;11.00;99.90;;;;;;6255058;22;20169;-86
2022/12/22 12:38:31;;;;;;;5.83;1.57;;;11.10;99.90;;;;;;6254137;22;20173;-86
2022/12/22 12:41:11;;;;;;;9.23;2.40;;;11.00;99.90;;;;;;6254432;22;20189;-86
2022/12/22 12:43:38;;;;;;;7.87;2.60;;;11.00;99.90;;;;;;6254397;22;20183;-86
2022/12/22 12:46:41;;;;;;;8.67;2.50;;;11.00;99.90;;;;;;6253723;22;20368;-86
2022/12/22 12:49:37;;;;;;;10.07;2.00;;;10.90;99.90;;;;;;6254392;22;20153;-87
2022/12/22 12:52:56;;;;;;;9.53;2.13;;;10.90;99.90;;;;;;6254250;22;20179;-86
2022/12/22 12:55:28;;;;;;;8.37;2.40;;;10.90;99.90;;;;;;6255102;22;20160;-86
2022/12/22 12:57:59;;;;;;;6.83;1.77;;;10.90;99.90;;;;;;6253859;22;20553;-86
2022/12/22 13:00:31;;;;;;;9.87;2.23;;;10.90;99.90;;;;;;6254403;22;20180;-86
2022/12/22 13:03:08;;;;;;;8.77;2.50;;;10.90;99.90;;;;;;6254563;22;20157;-86
2022/12/22 13:05:51;;;;;;;9.00;2.00;;;10.90;99.90;;;;;;6254727;22;20155;-85
2022/12/22 13:09:05;;;;;;;9.03;2.10;;;10.90;99.90;;;;;;6276584;22;20144;-79
2022/12/22 13:11:39;;;;;;;8.73;2.17;;;10.90;99.90;;;;;;6159895;23;20186;-86
2022/12/22 13:14:07;;;;;;;10.63;2.13;;;10.90;99.90;;;;;;6274235;22;20158;-86
2022/12/22 13:16:38;;;;;;;5.80;2.13;;;11.00;99.90;;;;;;6254708;22;20159;-86
2022/12/22 13:19:23;;;;;;;6.93;1.80;;;10.90;99.90;;;;;;6253607;22;20206;-86
2022/12/22 13:21:56;;;;;;;9.40;2.20;;;10.90;99.90;;;;;;6279044;22;20534;-86
2022/12/22 13:24:35;;;;;;;8.90;1.83;;;10.80;99.90;;;;;;6254142;22;20231;-85
2022/12/22 13:27:09;;;;;;;10.83;2.50;;;10.80;99.90;;;;;;6279926;22;20143;-86
2022/12/22 13:29:46;;;;;;;8.63;2.80;;;10.80;99.90;;;;;;6253159;22;20163;-86
2022/12/22 13:32:15;;;;;;;9.23;2.63;;;10.70;99.90;;;;;;6279091;22;20214;-86
2022/12/22 13:35:23;;;;;;;10.50;2.67;;;10.70;99.90;;;;;;6254571;22;20161;-84
2022/12/22 13:37:52;;;;;;;8.77;2.20;;;10.70;99.90;;;;;;6253670;22;20159;-84
2022/12/22 13:40:25;;;;;;;7.20;2.10;;;10.70;99.90;;;;;;6258846;22;20188;-86
2022/12/22 13:43:19;;;;;;;11.40;2.70;;;10.60;99.90;;;;;;6279321;22;20206;-86
2022/12/22 13:45:57;;;;;;;10.40;2.70;;;10.60;99.90;;;;;;6249462;22;20239;-86
2022/12/22 13:48:39;;;;;;;10.87;3.03;;;10.50;99.90;;;;;;6279170;22;20582;-86
2022/12/22 13:51:10;;;;;;;10.47;2.60;;;10.50;99.90;;;;;;6255765;22;20184;-86
2022/12/22 13:53:48;;;;;;;12.70;3.00;;;10.40;99.90;;;;;;6281950;22;20212;-87
2022/12/22 13:56:19;;;;;;;11.70;2.60;;;10.30;99.90;;;;;;6282234;22;20238;-86
2022/12/22 13:58:50;;;;;;;9.67;3.07;;;10.40;99.90;;;;;;6254736;22;20171;-86
2022/12/22 14:01:18;;;;;;;14.07;3.10;;;10.40;99.90;;;;;;6281009;22;20187;-86
2022/12/22 14:03:56;;;;;;;14.67;2.93;;;10.50;99.90;;;;;;6256490;22;20156;-86
2022/12/22 14:06:34;;;;;;;11.93;3.20;;;10.60;99.90;;;;;;6256248;22;20152;-86
2022/12/22 14:09:15;;;;;;;8.27;2.57;;;10.60;99.90;;;;;;6256670;22;20216;-86
2022/12/22 14:12:12;;;;;;;12.03;3.20;;;10.50;99.90;;;;;;6256336;22;20186;-87
2022/12/22 14:14:41;;;;;;;11.17;2.77;;;10.50;99.90;;;;;;6255132;22;20162;-87
2022/12/22 14:17:35;;;;;;;14.23;3.83;;;10.60;99.90;;;;;;6255951;22;20167;-87
2022/12/22 14:20:16;;;;;;;11.20;2.83;;;10.60;99.90;;;;;;6253959;22;20185;-89
2022/12/22 14:22:53;;;;;;;13.40;2.67;;;10.70;99.90;;;;;;6282201;22;20168;-85
2022/12/22 14:25:46;;;;;;;8.90;2.47;;;10.70;99.90;;;;;;6256625;22;20149;-86
2022/12/22 14:28:26;;;;;;;10.83;2.73;;;10.60;99.90;;;;;;6252579;22;20156;-86
2022/12/22 14:31:02;;;;;;;9.97;2.23;;;10.60;99.90;;;;;;6255519;22;20260;-86
2022/12/22 14:33:31;;;;;;;11.13;2.40;;;10.50;99.90;;;;;;6256127;22;20160;-86
2022/12/22 14:36:24;;;;;;;5.97;2.00;;;10.50;99.90;;;;;;6281637;22;20167;-86
2022/12/22 14:38:53;;;;;;;8.90;2.20;;;10.40;99.90;;;;;;6277831;22;20160;-86
2022/12/22 14:41:45;;;;;;;9.00;2.40;;;10.40;99.90;;;;;;6255164;22;20192;-86
2022/12/22 14:44:27;;;;;;;14.07;2.73;;;10.30;99.90;;;;;;6256159;22;20152;-86
2022/12/22 14:47:13;;;;;;;8.67;2.43;;;10.30;99.90;;;;;;6280929;22;20152;-86
2022/12/22 14:49:55;;;;;;;10.33;3.10;;;10.30;99.90;;;;;;6255221;22;20160;-86
2022/12/22 14:52:24;;;;;;;10.67;3.00;;;10.20;99.90;;;;;;6281492;22;20176;-86
2022/12/22 14:54:52;;;;;;;9.23;2.30;;;10.20;99.90;;;;;;6256067;22;20152;-86
2022/12/22 14:57:35;;;;;;;10.67;2.43;;;10.20;99.90;;;;;;6281490;22;20159;-86
2022/12/22 15:00:07;;;;;;;8.17;2.37;;;10.20;99.90;;;;;;6255666;22;20192;-86
2022/12/22 15:02:48;;;;;;;12.93;2.47;;;10.20;99.90;;;;;;6281114;22;20172;-86
2022/12/22 15:05:26;;;;;;;13.17;2.63;;;10.20;99.90;;;;;;6281706;22;20156;-86
2022/12/22 15:07:55;;;;;;;12.37;3.07;;;10.20;99.90;;;;;;6281261;22;20186;-86
2022/12/22 15:10:21;;;;;;;12.70;3.03;;;10.10;99.90;;;;;;6281053;22;20214;-86
2022/12/22 15:12:48;;;;;;;11.07;2.43;;;10.10;99.90;;;;;;6255654;22;20180;-86
2022/12/22 15:15:17;;;;;;;12.97;3.23;;;10.20;99.90;;;;;;6255759;22;20153;-86
2022/12/22 15:17:45;;;;;;;11.97;2.77;;;10.20;99.90;;;;;;6255776;22;20278;-86
2022/12/22 15:20:24;;;;;;;9.00;2.50;;;10.20;99.90;;;;;;6277401;22;20189;-87
2022/12/22 15:22:50;;;;;;;14.40;3.80;;;10.20;99.90;;;;;;6282776;22;20163;-86
2022/12/22 15:25:19;;;;;;;12.53;2.40;;;10.10;99.90;;;;;;6281583;22;20240;-86
2022/12/22 15:27:46;;;;;;;8.43;2.97;;;10.10;99.90;;;;;;6255706;22;20160;-86
2022/12/22 15:30:13;;;;;;;9.77;2.80;;;10.20;99.90;;;;;;6281540;22;20163;-86
2022/12/22 15:32:40;;;;;;;12.53;3.60;;;10.20;99.90;;;;;;6255961;22;20191;-86
2022/12/22 15:35:25;;;;;;;9.50;2.37;;;10.10;99.90;;;;;;6255541;22;20156;-86
2022/12/22 15:38:19;;;;;;;9.60;2.67;;;10.10;99.90;;;;;;6280795;22;20193;-86
2022/12/22 15:40:45;;;;;;;11.10;3.13;;;10.10;99.90;;;;;;6280890;22;20184;-86
2022/12/22 15:43:11;;;;;;;12.77;3.30;;;10.10;99.90;;;;;;6256162;22;20190;-86
2022/12/22 15:45:38;;;;;;;11.40;2.97;;;10.00;99.90;;;;;;6255372;22;20227;-86
2022/12/22 15:48:08;;;;;;;11.70;2.90;;;10.00;99.90;;;;;;6280636;22;20152;-86
2022/12/22 15:50:38;;;;;;;13.17;3.27;;;10.00;99.90;;;;;;6280668;22;20163;-86
2022/12/22 15:53:07;;;;;;;13.40;3.27;;;9.90;99.90;;;;;;6256069;22;20236;-86
2022/12/22 15:55:39;;;;;;;10.33;2.80;;;9.90;99.90;;;;;;6254790;22;20183;-86
2022/12/22 15:58:08;;;;;;;8.87;3.13;;;9.90;99.90;;;;;;6305778;22;20173;-86
2022/12/22 16:00:34;;;;;;;9.23;3.00;;;9.90;99.90;;;;;;6253846;22;20195;-86
2022/12/22 16:03:00;;;;;;;11.50;3.03;;;9.80;99.90;;;;;;6254200;22;20156;-86
2022/12/22 16:05:26;;;;;;;11.77;2.50;;;9.80;99.90;;;;;;6255207;22;20156;-86
2022/12/22 16:07:52;;;;;;;12.27;2.93;;;9.80;99.90;;;;;;6255056;22;20243;-86
2022/12/22 16:10:33;;;;;;;15.07;2.70;;;9.80;99.90;;;;;;6254686;22;20163;-89
2022/12/22 16:13:03;;;;;;;11.57;2.60;;;9.80;99.90;;;;;;6276452;22;20198;-87
2022/12/22 16:15:32;;;;;;;12.10;2.43;;;9.70;99.90;;;;;;6254667;22;20161;-87
2022/12/22 16:17:59;;;;;;;18.03;6.57;;;9.80;99.90;;;;;;6255150;22;20194;-87
2022/12/22 16:20:28;;;;;;;18.53;6.87;;;9.70;99.90;;;;;;6280456;22;20197;-87
2022/12/22 16:22:58;;;;;;;10.77;3.47;;;9.70;99.90;;;;;;6254586;22;20176;-87
2022/12/22 16:25:29;;;;;;;10.37;2.93;;;9.70;99.90;;;;;;6280093;22;20160;-87
2022/12/22 16:27:56;;;;;;;9.73;2.63;;;9.70;99.90;;;;;;6254448;22;20156;-87
2022/12/22 16:30:24;;;;;;;14.33;5.90;;;9.70;99.90;;;;;;6254273;22;20156;-88
2022/12/22 16:32:51;;;;;;;36.37;18.07;;;9.60;99.90;;;;;;6254558;22;20175;-87
2022/12/22 16:35:20;;;;;;;26.23;11.27;;;9.60;99.90;;;;;;6278544;22;20254;-87
2022/12/22 16:37:50;;;;;;;10.17;4.57;;;9.60;99.90;;;;;;6279737;22;20165;-87
2022/12/22 16:40:18;;;;;;;12.57;4.23;;;9.50;99.90;;;;;;6254437;22;20188;-87
2022/12/22 16:43:04;;;;;;;13.30;4.93;;;9.50;99.90;;;;;;6278235;22;20173;-87
2022/12/22 16:45:33;;;;;;;13.70;4.33;;;9.50;99.90;;;;;;6254613;22;20162;-87
2022/12/22 16:48:05;;;;;;;11.83;4.90;;;9.50;99.90;;;;;;6254589;22;20235;-87
2022/12/22 16:50:32;;;;;;;15.77;4.33;;;9.50;99.90;;;;;;6254814;22;20184;-87
2022/12/22 16:53:00;;;;;;;12.33;4.03;;;9.50;99.90;;;;;;6254385;22;20163;-87
2022/12/22 16:55:27;;;;;;;13.43;4.67;;;9.50;99.90;;;;;;6254529;22;20217;-87
2022/12/22 16:57:53;;;;;;;11.50;4.53;;;9.50;99.90;;;;;;6254036;22;20169;-87
2022/12/22 17:00:22;;;;;;;15.93;4.80;;;9.50;99.90;;;;;;6254124;22;20623;-87